createdAt,value
2017-06-12T00:01:17.704Z,5.93
2017-06-12T00:03:45.934Z,3.53
2017-06-12T00:06:14.188Z,3.50
2017-06-12T00:08:42.446Z,4.33
2017-06-12T00:11:10.680Z,4.90
2017-06-12T00:13:39.252Z,4.50
2017-06-12T00:16:07.499Z,4.60
2017-06-12T00:18:35.750Z,4.40
2017-06-12T00:21:04.013Z,3.90
2017-06-12T00:23:32.278Z,4.20
2017-06-12T00:26:01.113Z,4.70
2017-06-12T00:28:29.345Z,4.53
2017-06-12T00:30:57.572Z,4.60
2017-06-12T00:33:25.846Z,5.17
2017-06-12T00:35:54.087Z,5.40
2017-06-12T00:38:22.427Z,5.37
2017-06-12T00:40:51.623Z,5.23
2017-06-12T00:43:19.860Z,5.07
2017-06-12T00:45:48.096Z,5.67
2017-06-12T00:48:16.357Z,5.30
2017-06-12T00:50:44.591Z,5.80
2017-06-12T00:53:13.333Z,5.80
2017-06-12T00:55:42.158Z,6.40
2017-06-12T00:58:10.398Z,6.83
2017-06-12T01:00:39.319Z,5.80
2017-06-12T01:03:07.853Z,4.10
2017-06-12T01:05:36.145Z,5.73
2017-06-12T01:08:04.391Z,6.00
2017-06-12T01:10:33.261Z,8.03
2017-06-12T01:13:01.495Z,6.33
2017-06-12T01:15:30.127Z,6.83
2017-06-12T01:17:58.382Z,7.47
2017-06-12T01:20:26.620Z,7.50
2017-06-12T01:22:55.453Z,7.90
2017-06-12T01:25:23.973Z,7.60
2017-06-12T01:27:52.195Z,8.20
2017-06-12T01:30:20.475Z,7.80
2017-06-12T01:32:48.737Z,7.90
2017-06-12T01:35:16.968Z,8.20
2017-06-12T01:37:45.253Z,8.90
2017-06-12T01:40:13.488Z,7.80
2017-06-12T01:42:41.721Z,8.10
2017-06-12T01:45:10.655Z,8.30
2017-06-12T01:47:38.894Z,7.63
2017-06-12T01:50:07.128Z,7.73
2017-06-12T01:52:35.401Z,7.63
2017-06-12T01:55:03.648Z,6.67
2017-06-12T01:57:31.892Z,7.33
2017-06-12T02:00:00.755Z,7.50
2017-06-12T02:02:28.985Z,7.60
2017-06-12T02:04:57.232Z,7.87
2017-06-12T02:07:25.761Z,7.47
2017-06-12T02:09:53.983Z,7.70
2017-06-12T02:12:22.621Z,7.53
2017-06-12T02:14:50.879Z,6.80
2017-06-12T02:17:19.122Z,8.20
2017-06-12T02:19:47.756Z,7.87
2017-06-12T02:22:16.267Z,7.70
2017-06-12T02:24:44.515Z,7.90
2017-06-12T02:27:13.028Z,7.80
2017-06-12T02:29:41.394Z,7.57
2017-06-12T02:32:09.626Z,7.90
2017-06-12T02:34:37.909Z,7.73
2017-06-12T02:37:06.779Z,7.50
2017-06-12T02:39:35.103Z,7.50
2017-06-12T02:42:03.333Z,7.40
2017-06-12T02:44:31.656Z,7.37
2017-06-12T02:46:59.876Z,7.77
2017-06-12T02:49:28.125Z,7.50
2017-06-12T02:51:56.389Z,7.90
2017-06-12T02:54:24.623Z,7.50
2017-06-12T02:56:52.876Z,7.30
2017-06-12T02:59:21.135Z,7.40
2017-06-12T03:01:49.448Z,6.80
2017-06-12T03:04:17.683Z,6.50
2017-06-12T03:06:45.953Z,6.43
2017-06-12T03:09:14.183Z,6.60
2017-06-12T03:11:42.433Z,6.10
2017-06-12T03:14:11.076Z,5.93
2017-06-12T03:16:39.308Z,7.17
2017-06-12T03:19:07.565Z,6.90
2017-06-12T03:21:35.803Z,6.70
2017-06-12T03:24:04.040Z,7.27
2017-06-12T03:26:32.570Z,6.90
2017-06-12T03:29:00.815Z,6.87
2017-06-12T03:31:29.049Z,7.00
2017-06-12T03:33:57.860Z,6.97
2017-06-12T03:36:26.390Z,7.37
2017-06-12T03:38:54.695Z,7.10
2017-06-12T03:41:23.029Z,7.73
2017-06-12T03:43:51.260Z,6.80
2017-06-12T03:46:19.499Z,7.70
2017-06-12T03:48:47.792Z,7.03
2017-06-12T03:51:16.060Z,6.80
2017-06-12T03:53:44.296Z,7.60
2017-06-12T03:56:12.803Z,7.33
2017-06-12T03:58:41.042Z,7.23
2017-06-12T04:01:09.564Z,6.70
2017-06-12T04:03:38.159Z,7.40
2017-06-12T04:06:06.398Z,6.50
2017-06-12T04:08:34.633Z,6.47
2017-06-12T04:11:02.894Z,7.20
2017-06-12T04:13:31.122Z,6.70
2017-06-12T04:15:59.394Z,6.97
2017-06-12T04:18:27.691Z,6.60
2017-06-12T04:20:55.910Z,7.20
2017-06-12T04:23:24.667Z,5.87
2017-06-12T04:25:52.900Z,5.67
2017-06-12T04:28:21.143Z,7.00
2017-06-12T04:30:49.407Z,6.40
2017-06-12T04:33:18.035Z,7.27
2017-06-12T04:35:46.289Z,6.63
2017-06-12T04:38:14.984Z,6.60
2017-06-12T04:40:43.515Z,5.33
2017-06-12T04:43:11.751Z,5.67
2017-06-12T04:45:40.020Z,6.50
2017-06-12T04:48:08.288Z,5.50
2017-06-12T04:50:36.519Z,5.30
2017-06-12T04:53:04.776Z,4.87
2017-06-12T04:55:33.084Z,5.97
2017-06-12T04:58:01.324Z,5.30
2017-06-12T05:00:29.826Z,6.67
2017-06-12T05:02:58.068Z,5.70
2017-06-12T05:05:26.360Z,7.10
2017-06-12T05:07:54.596Z,7.63
2017-06-12T05:10:22.835Z,6.30
2017-06-12T05:12:51.094Z,5.80
2017-06-12T05:15:19.325Z,5.10
2017-06-12T05:17:47.859Z,4.43
2017-06-12T05:20:16.135Z,7.97
2017-06-12T05:22:44.371Z,5.30
2017-06-12T05:25:12.603Z,8.80
2017-06-12T05:27:40.884Z,5.57
2017-06-12T05:30:09.119Z,7.40
2017-06-12T05:32:37.347Z,4.80
2017-06-12T05:35:05.851Z,5.30
2017-06-12T05:37:34.086Z,5.60
2017-06-12T05:40:02.720Z,6.10
2017-06-12T05:42:30.973Z,5.07
2017-06-12T05:44:59.206Z,6.87
2017-06-12T05:47:27.454Z,5.80
2017-06-12T05:49:55.719Z,5.80
2017-06-12T05:52:23.952Z,5.40
2017-06-12T05:54:52.589Z,5.97
2017-06-12T05:57:20.863Z,6.10
2017-06-12T05:59:49.220Z,6.80
2017-06-12T06:02:17.463Z,6.37
2017-06-12T06:04:45.894Z,6.00
2017-06-12T06:07:14.115Z,5.43
2017-06-12T06:09:42.989Z,6.17
2017-06-12T06:12:11.675Z,6.27
2017-06-12T06:14:39.917Z,9.27
2017-06-12T06:17:08.153Z,6.77
2017-06-12T06:19:36.812Z,6.40
2017-06-12T06:22:05.051Z,6.67
2017-06-12T06:24:33.299Z,5.77
2017-06-12T06:27:01.811Z,8.23
2017-06-12T06:29:30.272Z,6.00
2017-06-12T06:31:58.524Z,6.30
2017-06-12T06:34:27.200Z,8.27
2017-06-12T06:36:55.439Z,8.03
2017-06-12T06:39:23.676Z,6.43
2017-06-12T06:41:52.285Z,6.83
2017-06-12T06:44:20.531Z,5.87
2017-06-12T06:46:48.767Z,5.93
2017-06-12T06:49:17.034Z,5.77
2017-06-12T06:51:45.279Z,5.00
2017-06-12T06:54:13.510Z,5.20
2017-06-12T06:56:42.187Z,4.20
2017-06-12T06:59:10.589Z,4.50
2017-06-12T07:01:38.961Z,4.00
2017-06-12T07:04:07.518Z,5.20
2017-06-12T07:06:36.310Z,4.17
2017-06-12T07:09:04.571Z,3.93
2017-06-12T07:11:33.195Z,3.70
2017-06-12T07:14:01.534Z,3.33
2017-06-12T07:16:29.789Z,3.17
2017-06-12T07:18:58.313Z,3.50
2017-06-12T07:21:26.545Z,3.70
2017-06-12T07:23:54.957Z,3.63
2017-06-12T07:26:23.187Z,3.03
2017-06-12T07:28:51.408Z,3.33
2017-06-12T07:31:19.705Z,3.03
2017-06-12T07:33:48.339Z,2.87
2017-06-12T07:36:16.579Z,3.03
2017-06-12T07:38:44.862Z,2.90
2017-06-12T07:41:13.400Z,3.00
2017-06-12T07:43:41.627Z,3.13
2017-06-12T07:46:11.060Z,2.77
2017-06-12T07:48:39.564Z,3.10
2017-06-12T07:51:07.794Z,3.70
2017-06-12T07:53:36.048Z,3.00
2017-06-12T07:56:04.280Z,3.07
2017-06-12T07:58:32.537Z,2.47
2017-06-12T08:01:00.781Z,2.77
2017-06-12T08:03:29.317Z,2.83
2017-06-12T08:05:57.657Z,2.63
2017-06-12T08:08:25.887Z,3.57
2017-06-12T08:10:54.119Z,3.20
2017-06-12T08:13:22.398Z,2.63
2017-06-12T08:15:50.895Z,2.40
2017-06-12T08:18:19.121Z,2.43
2017-06-12T08:20:47.373Z,2.80
2017-06-12T08:23:16.020Z,2.77
2017-06-12T08:25:44.408Z,3.90
2017-06-12T08:28:12.686Z,3.70
2017-06-12T08:30:40.912Z,3.53
2017-06-12T08:33:09.448Z,3.13
2017-06-12T08:35:37.703Z,3.30
2017-06-12T08:38:05.939Z,3.00
2017-06-12T08:40:34.204Z,3.07
2017-06-12T08:43:02.841Z,3.20
2017-06-12T08:45:32.301Z,2.97
2017-06-12T08:48:00.671Z,3.40
2017-06-12T08:50:28.897Z,2.90
2017-06-12T08:52:57.128Z,2.40
2017-06-12T08:55:25.415Z,2.33
2017-06-12T08:57:54.320Z,2.80
2017-06-12T09:00:22.717Z,2.53
2017-06-12T09:02:50.987Z,2.60
2017-06-12T09:05:19.224Z,2.60
2017-06-12T09:07:48.173Z,2.60
2017-06-12T09:10:16.427Z,3.07
2017-06-12T09:12:44.723Z,2.47
2017-06-12T09:15:12.999Z,2.07
2017-06-12T09:17:41.253Z,2.10
2017-06-12T09:20:09.522Z,2.40
2017-06-12T09:22:37.759Z,2.10
2017-06-12T09:25:06.385Z,2.80
2017-06-12T09:27:34.648Z,2.20
2017-06-12T09:30:02.892Z,2.67
2017-06-12T09:32:31.534Z,2.00
2017-06-12T09:34:59.842Z,2.17
2017-06-12T09:37:28.200Z,2.40
2017-06-12T09:39:56.693Z,2.30
2017-06-12T09:42:25.752Z,2.60
2017-06-12T09:44:54.352Z,2.87
2017-06-12T09:47:22.584Z,2.47
2017-06-12T09:49:50.855Z,2.30
2017-06-12T09:52:19.941Z,2.60
2017-06-12T09:54:48.176Z,2.30
2017-06-12T09:57:16.779Z,2.10
2017-06-12T09:59:45.041Z,2.27
2017-06-12T10:02:13.260Z,2.20
2017-06-12T10:04:41.799Z,2.40
2017-06-12T10:07:10.644Z,2.07
2017-06-12T10:09:38.966Z,2.30
2017-06-12T10:12:07.461Z,2.20
2017-06-12T10:14:35.712Z,2.97
2017-06-12T10:17:03.981Z,2.23
2017-06-12T10:19:32.519Z,2.97
2017-06-12T10:22:00.932Z,2.40
2017-06-12T10:24:29.170Z,2.10
2017-06-12T10:26:57.812Z,2.23
2017-06-12T10:29:26.039Z,2.20
2017-06-12T10:31:54.354Z,2.67
2017-06-12T10:34:22.600Z,2.07
2017-06-12T10:36:50.829Z,2.40
2017-06-12T10:39:19.201Z,2.07
2017-06-12T10:41:47.458Z,2.07
2017-06-12T10:44:15.687Z,2.27
2017-06-12T10:46:48.373Z,2.00
2017-06-12T10:49:16.600Z,2.13
2017-06-12T10:51:44.982Z,2.30
2017-06-12T10:54:13.461Z,2.10
2017-06-12T10:56:41.681Z,2.60
2017-06-12T10:59:10.324Z,2.30
2017-06-12T11:01:38.596Z,2.00
2017-06-12T11:04:06.826Z,2.10
2017-06-12T11:06:35.070Z,2.50
2017-06-12T11:09:03.347Z,2.93
2017-06-12T11:11:31.584Z,2.07
2017-06-12T11:13:59.824Z,2.30
2017-06-12T11:16:28.079Z,2.07
2017-06-12T11:18:56.643Z,1.97
2017-06-12T11:21:24.927Z,2.20
2017-06-12T11:23:53.159Z,1.87
2017-06-12T11:26:21.673Z,2.23
2017-06-12T11:28:49.951Z,1.50
2017-06-12T11:31:18.325Z,2.17
2017-06-12T11:33:46.912Z,3.00
2017-06-12T11:36:15.284Z,2.00
2017-06-12T11:38:43.509Z,2.17
2017-06-12T11:41:11.741Z,2.37
2017-06-12T11:43:40.046Z,2.60
2017-06-12T11:46:08.674Z,2.53
2017-06-12T11:48:36.933Z,2.60
2017-06-12T11:51:05.251Z,2.40
2017-06-12T11:53:33.489Z,2.40
2017-06-12T11:56:01.726Z,2.70
2017-06-12T11:58:29.991Z,2.33
2017-06-12T12:00:58.239Z,2.40
2017-06-12T12:03:26.489Z,2.00
2017-06-12T12:05:54.776Z,2.80
2017-06-12T12:08:23.287Z,2.53
2017-06-12T12:10:51.551Z,2.60
2017-06-12T12:13:19.803Z,2.03
2017-06-12T12:15:48.040Z,2.40
2017-06-12T12:18:16.295Z,1.93
2017-06-12T12:20:44.536Z,2.33
2017-06-12T12:23:12.780Z,2.20
2017-06-12T12:25:41.443Z,2.20
2017-06-12T12:28:09.732Z,2.23
2017-06-12T12:30:37.973Z,3.00
2017-06-12T12:33:06.235Z,2.20
2017-06-12T12:35:34.466Z,2.60
2017-06-12T12:38:03.264Z,2.10
2017-06-12T12:40:31.661Z,2.70
2017-06-12T12:42:59.882Z,2.03
2017-06-12T12:45:28.124Z,2.43
2017-06-12T12:47:56.395Z,1.87
2017-06-12T12:50:24.667Z,2.33
2017-06-12T12:52:52.922Z,2.30
2017-06-12T12:55:21.200Z,2.23
2017-06-12T12:57:49.427Z,2.63
2017-06-12T13:00:17.873Z,2.30
2017-06-12T13:02:46.385Z,2.00
2017-06-12T13:05:14.633Z,2.60
2017-06-12T13:07:42.900Z,2.00
2017-06-12T13:10:11.137Z,2.00
2017-06-12T13:12:39.759Z,2.70
2017-06-12T13:15:08.276Z,2.10
2017-06-12T13:17:36.553Z,2.43
2017-06-12T13:20:04.780Z,2.80
2017-06-12T13:22:33.051Z,2.57
2017-06-12T13:25:01.283Z,2.50
2017-06-12T13:27:29.511Z,2.50
2017-06-12T13:29:57.998Z,2.63
2017-06-12T13:32:26.232Z,2.40
2017-06-12T13:34:54.463Z,2.10
2017-06-12T13:37:22.740Z,1.80
2017-06-12T13:39:50.967Z,2.20
2017-06-12T13:42:19.614Z,2.37
2017-06-12T13:44:47.900Z,2.10
2017-06-12T13:47:16.165Z,2.93
2017-06-12T13:49:44.384Z,2.40
2017-06-12T13:52:12.656Z,2.70
2017-06-12T13:54:41.283Z,2.30
2017-06-12T13:57:09.760Z,2.40
2017-06-12T13:59:37.997Z,2.10
2017-06-12T14:02:06.631Z,2.17
2017-06-12T14:04:34.926Z,2.40
2017-06-12T14:07:03.152Z,2.23
2017-06-12T14:09:31.386Z,3.13
2017-06-12T14:11:59.747Z,2.63
2017-06-12T14:14:27.964Z,2.20
2017-06-12T14:16:56.592Z,2.93
2017-06-12T14:19:24.900Z,2.70
2017-06-12T14:21:53.124Z,2.63
2017-06-12T14:24:21.402Z,3.40
2017-06-12T14:26:49.680Z,2.60
2017-06-12T14:29:17.972Z,2.60
2017-06-12T14:31:46.196Z,2.40
2017-06-12T14:34:14.851Z,2.33
2017-06-12T14:36:43.120Z,2.17
2017-06-12T14:39:11.401Z,2.40
2017-06-12T14:41:39.703Z,2.10
2017-06-12T14:44:08.715Z,2.30
2017-06-12T14:46:36.957Z,2.80
2017-06-12T14:49:05.224Z,2.40
2017-06-12T14:51:33.457Z,2.90
2017-06-12T14:54:01.774Z,2.93
2017-06-12T14:56:30.228Z,2.50
2017-06-12T14:58:58.613Z,2.73
2017-06-12T15:01:27.006Z,2.43
2017-06-12T15:03:55.392Z,3.00
2017-06-12T15:06:23.874Z,2.30
2017-06-12T15:08:52.245Z,2.47
2017-06-12T15:11:20.489Z,2.53
2017-06-12T15:13:48.736Z,2.40
2017-06-12T15:16:17.073Z,2.30
2017-06-12T15:18:45.364Z,2.50
2017-06-12T15:21:13.649Z,2.07
2017-06-12T15:23:41.879Z,2.10
2017-06-12T15:26:10.111Z,2.33
2017-06-12T15:28:39.266Z,2.17
2017-06-12T15:31:07.563Z,2.20
2017-06-12T15:33:35.821Z,2.10
2017-06-12T15:36:04.083Z,2.30
2017-06-12T15:38:32.377Z,2.83
2017-06-12T15:41:00.683Z,2.60
2017-06-12T15:43:29.020Z,2.23
2017-06-12T15:45:57.256Z,2.13
2017-06-12T15:48:25.518Z,2.50
2017-06-12T15:50:54.191Z,2.43
2017-06-12T15:53:22.422Z,2.60
2017-06-12T15:55:50.876Z,2.27
2017-06-12T15:58:19.684Z,1.90
2017-06-12T16:00:47.920Z,2.17
2017-06-12T16:03:16.543Z,2.40
2017-06-12T16:05:44.816Z,2.13
2017-06-12T16:08:13.064Z,2.60
2017-06-12T16:10:41.324Z,2.23
2017-06-12T16:13:10.200Z,2.20
2017-06-12T16:15:38.457Z,2.37
2017-06-12T16:18:06.758Z,2.50
2017-06-12T16:20:35.026Z,2.00
2017-06-12T16:23:03.244Z,2.30
2017-06-12T16:25:31.495Z,2.60
2017-06-12T16:27:59.780Z,2.80
2017-06-12T16:30:28.026Z,2.13
2017-06-12T16:32:56.262Z,1.90
2017-06-12T16:35:24.884Z,2.37
2017-06-12T16:37:53.128Z,2.27
2017-06-12T16:40:21.365Z,2.53
2017-06-12T16:42:49.751Z,2.80
2017-06-12T16:45:18.037Z,1.77
2017-06-12T16:47:46.280Z,1.83
2017-06-12T16:50:14.942Z,2.50
2017-06-12T16:52:43.205Z,2.40
2017-06-12T16:55:11.508Z,2.47
2017-06-12T16:57:39.776Z,2.20
2017-06-12T17:00:08.159Z,2.30
2017-06-12T17:02:36.385Z,2.60
2017-06-12T17:05:04.642Z,2.50
2017-06-12T17:07:32.981Z,2.47
2017-06-12T17:10:01.198Z,2.57
2017-06-12T17:12:29.467Z,2.43
2017-06-12T17:14:57.805Z,2.50
2017-06-12T17:17:26.092Z,2.60
2017-06-12T17:19:54.318Z,2.50
2017-06-12T17:22:22.846Z,2.53
2017-06-12T17:24:51.154Z,2.20
2017-06-12T17:27:19.380Z,2.60
2017-06-12T17:29:47.632Z,2.37
2017-06-12T17:32:16.265Z,2.27
2017-06-12T17:34:44.503Z,3.07
2017-06-12T17:37:12.973Z,2.83
2017-06-12T17:39:41.244Z,2.83
2017-06-12T17:42:09.561Z,2.80
2017-06-12T17:44:37.797Z,2.90
2017-06-12T17:47:06.444Z,2.40
2017-06-12T17:49:34.680Z,2.33
2017-06-12T17:52:03.133Z,2.50
2017-06-12T17:54:31.405Z,2.87
2017-06-12T17:56:59.641Z,2.40
2017-06-12T17:59:27.909Z,2.60
2017-06-12T18:01:56.153Z,2.73
2017-06-12T18:04:24.447Z,2.60
2017-06-12T18:06:52.739Z,2.60
2017-06-12T18:09:20.980Z,2.37
2017-06-12T18:11:49.260Z,2.40
2017-06-12T18:14:17.504Z,2.23
2017-06-12T18:16:46.156Z,3.00
2017-06-12T18:19:14.455Z,2.40
2017-06-12T18:21:42.684Z,3.10
2017-06-12T18:24:11.072Z,2.70
2017-06-12T18:26:39.323Z,3.27
2017-06-12T18:29:08.717Z,2.33
2017-06-12T18:31:36.941Z,2.57
2017-06-12T18:34:05.216Z,2.83
2017-06-12T18:36:33.457Z,2.50
2017-06-12T18:39:01.684Z,2.30
2017-06-12T18:41:31.032Z,2.90
2017-06-12T18:43:59.288Z,2.70
2017-06-12T18:46:28.997Z,2.93
2017-06-12T18:48:57.911Z,3.03
2017-06-12T18:51:26.283Z,3.00
2017-06-12T18:53:54.509Z,2.77
2017-06-12T18:56:23.581Z,3.17
2017-06-12T18:58:51.812Z,3.00
2017-06-12T19:01:20.050Z,2.70
2017-06-12T19:03:48.347Z,2.70
2017-06-12T19:06:17.006Z,2.77
2017-06-12T19:08:45.258Z,3.03
2017-06-12T19:11:13.866Z,2.77
2017-06-12T19:13:42.109Z,2.70
2017-06-12T19:16:10.468Z,3.10
2017-06-12T19:18:38.768Z,3.20
2017-06-12T19:21:07.021Z,3.67
2017-06-12T19:23:35.671Z,2.80
2017-06-12T19:26:03.918Z,5.03
2017-06-12T19:28:32.164Z,2.93
2017-06-12T19:31:00.419Z,2.80
2017-06-12T19:33:28.953Z,2.80
2017-06-12T19:35:57.181Z,2.80
2017-06-12T19:38:25.445Z,3.17
2017-06-12T19:40:53.734Z,3.10
2017-06-12T19:43:21.963Z,3.20
2017-06-12T19:45:50.272Z,2.90
2017-06-12T19:48:18.808Z,2.87
2017-06-12T19:50:47.021Z,2.80
2017-06-12T19:53:15.277Z,2.60
2017-06-12T19:55:43.553Z,3.20
2017-06-12T19:58:11.820Z,3.00
2017-06-12T20:00:40.408Z,3.07
2017-06-12T20:03:08.661Z,6.00
2017-06-12T20:05:36.904Z,3.10
2017-06-12T20:08:05.166Z,2.97
2017-06-12T20:10:33.472Z,3.03
2017-06-12T20:13:01.758Z,3.50
2017-06-12T20:15:30.199Z,3.30
2017-06-12T20:17:58.491Z,2.70
2017-06-12T20:20:26.727Z,2.57
2017-06-12T20:22:54.960Z,2.70
2017-06-12T20:25:23.215Z,2.73
2017-06-12T20:27:51.440Z,2.77
2017-06-12T20:30:19.933Z,3.00
2017-06-12T20:32:48.747Z,2.60
2017-06-12T20:35:17.062Z,2.80
2017-06-12T20:37:45.324Z,2.77
2017-06-12T20:40:13.564Z,3.00
2017-06-12T20:42:42.313Z,2.80
2017-06-12T20:45:10.610Z,2.63
2017-06-12T20:47:38.837Z,4.33
2017-06-12T20:50:07.065Z,3.00
2017-06-12T20:52:35.338Z,2.97
2017-06-12T20:55:03.580Z,2.33
2017-06-12T20:57:31.826Z,2.17
2017-06-12T21:00:00.094Z,3.60
2017-06-12T21:02:28.329Z,2.57
2017-06-12T21:04:56.562Z,2.80
2017-06-12T21:07:25.464Z,2.70
2017-06-12T21:09:53.712Z,2.57
2017-06-12T21:12:21.936Z,2.30
2017-06-12T21:14:50.213Z,2.70
2017-06-12T21:17:18.454Z,2.90
2017-06-12T21:19:46.704Z,2.57
2017-06-12T21:22:14.953Z,3.50
2017-06-12T21:24:43.205Z,3.33
2017-06-12T21:27:11.463Z,2.37
2017-06-12T21:29:39.756Z,2.00
2017-06-12T21:32:07.995Z,2.20
2017-06-12T21:34:36.497Z,3.10
2017-06-12T21:37:04.733Z,2.87
2017-06-12T21:39:33.369Z,2.60
2017-06-12T21:42:01.652Z,3.30
2017-06-12T21:44:29.884Z,2.30
2017-06-12T21:46:58.119Z,2.23
2017-06-12T21:49:26.416Z,2.40
2017-06-12T21:51:55.047Z,1.93
2017-06-12T21:54:23.340Z,2.63
2017-06-12T21:56:52.204Z,2.53
2017-06-12T21:59:20.437Z,2.50
2017-06-12T22:01:49.797Z,2.70
2017-06-12T22:04:18.364Z,3.00
2017-06-12T22:06:46.606Z,2.73
2017-06-12T22:09:15.236Z,2.13
2017-06-12T22:11:43.488Z,2.20
2017-06-12T22:14:11.731Z,2.73
2017-06-12T22:16:39.962Z,2.80
2017-06-12T22:19:08.252Z,2.57
2017-06-12T22:21:36.504Z,2.83
2017-06-12T22:24:04.812Z,2.63
2017-06-12T22:26:33.356Z,2.93
2017-06-12T22:29:01.631Z,2.27
2017-06-12T22:31:29.887Z,2.10
2017-06-12T22:33:58.285Z,2.60
2017-06-12T22:36:26.707Z,2.57
2017-06-12T22:38:54.983Z,2.50
2017-06-12T22:41:23.227Z,2.50
2017-06-12T22:43:51.741Z,2.30
2017-06-12T22:46:20.179Z,2.50
2017-06-12T22:48:48.407Z,2.30
2017-06-12T22:51:16.876Z,2.67
2017-06-12T22:53:45.144Z,2.67
2017-06-12T22:56:13.363Z,2.47
2017-06-12T22:58:41.611Z,2.13
2017-06-12T23:01:10.148Z,3.10
2017-06-12T23:03:38.376Z,3.57
2017-06-12T23:06:06.647Z,2.23
2017-06-12T23:08:34.922Z,2.20
2017-06-12T23:11:03.176Z,2.47
2017-06-12T23:13:31.396Z,2.30
2017-06-12T23:16:00.024Z,2.70
2017-06-12T23:18:28.260Z,2.70
2017-06-12T23:20:56.620Z,2.50
2017-06-12T23:23:25.244Z,2.90
2017-06-12T23:25:59.355Z,2.57
2017-06-12T23:28:27.661Z,2.40
2017-06-12T23:30:55.880Z,2.27
2017-06-12T23:33:24.170Z,2.40
2017-06-12T23:35:52.401Z,2.90
2017-06-12T23:38:20.639Z,2.80
2017-06-12T23:40:49.151Z,2.40
2017-06-12T23:43:17.384Z,3.07
2017-06-12T23:45:45.626Z,2.73
2017-06-12T23:48:14.185Z,2.33
2017-06-12T23:50:42.416Z,2.10
2017-06-12T23:53:10.643Z,1.93
2017-06-12T23:55:39.077Z,2.37
2017-06-12T23:58:07.601Z,4.93
